Grove Research Station, Tasmania

2:58 AM EST on August 30, 2014 (GMT +1000)
'Wallowa' Longley Tasmania | Change Station
CLOSE
Current Station
Personal Weather Station
Location: Longley, TASMANIA
Elevation: 830 ft
Nearby Weather Stations

Elev 830 ft 42.96 °S, 147.20 °E | Updated 8 minutes ago

Clear
Clear
37.4 °F
Feels Like 35 °F
N
3.1
Wind Variable Wind from North
Gusts 3.1 mph

Today
High -- | Low -- °F
--% Chance of Precip.
Yesterday
High -- | Low -- °F
Precip. -- in
6:42 AM 5:43 PM
Waxing Crescent, 15% visible
Pressure 30.39 in
Visibility -9999.0 miles
Clouds
Windchill 35 °F
Dew Point 36 °F
Humidity 96%
Rainfall 0.00 in
Snow Depth Not available.
UV Not available.
Pollen Not available.
Air Quality Not available.
Flu Activity Not available.
METAR YMHB 291630Z 33006KT CAVOK 06/05 Q1029

More Conditions Fewer Conditions

Pressure 30.39 in
Visibility -9999.0 miles
Clouds
Windchill 35 °F
Dew Point 36 °F
Humidity 96%
Rainfall 0.00 in
Snow Depth Not available.
UV Not available.
Pollen Not available.
Air Quality Not available.
Flu Activity Not available.
METAR YMHB 291630Z 33006KT CAVOK 06/05 Q1029

More Conditions Fewer Conditions

10-Day Weather Forecast

Almanac

Astronomy

Aug. 30, 2014 Rise Set
Actual Time 6:42 AM EST 5:43 PM EST
Civil Twilight 6:13 AM EST 6:11 PM EST
Nautical Twilight 5:40 AM EST 6:44 PM EST
Astronomical Twilight 5:08 AM EST 7:17 PM EST
Moon 8:38 AM EST (8/30) 10:18 PM EST (8/30)
Length of Visible Light 11h 57m
Length of Day
11h 00m
Tomorrow will be 2m 45s longer.
Waxing Crescent, 15% of the Moon is Illuminated
Aug 29
Waxing Crescent
Sep 2
First Quarter
Sep 8
Full
Sep 15
Last Quarter
Sep 24
New

Yesterday's Extremes

Country Highs Country Lows

Community

WunderPhotos

Upload Photos

1,748,285 photos uploaded!

Nearby

Snow Depth

Not available.

Earthquake Activity

City Distance Mag. Time & Date
No recent earthquake activity has been reported nearby.
Minimum magnitude displayed is 2.5.

Coastal Water Temperatures

Place Temperature
No Stations Reporting

Nearby Weather Stations